Overseas Skopelos — V7SU9 — position and weather

sailwx.info

Track history (hours):
 
Tides and Currents Weather Stations Pressure Air Temp Water Temp Dewpoint Dewpoint Depression Visibility Wind Speed Wind Dir Waves Ship Positions

Overseas Skopelos

Last reported at 2017-May-23 08:15 UTC. Time now 2017-May-25 05:03 UTC.
Position N 58°33' E 003°45'.

Length 183 m; draft 8 m.

Type: Tanker. MMSI: 538003726.

Date/timePositionNaut miles runAvg speedWind from/ knotsBaromVisibWave heightAir tempDewpointWater temp
2017-May-23 08:15N 58°33' E 003°45'3 1.3
2017-May-23 06:21N 58°32' E 003°50'0 1.3
2017-May-23 06:00N 58°32' E 003°50'2 4.2
2017-May-23 05:30N 58°31' E 003°54'612.6
2017-May-23 05:00N 58°28' E 004°04'713.2
2017-May-23 04:30N 58°24' E 004°14'713.2
2017-May-23 04:00N 58°20' E 004°24'713.7
2017-May-23 03:30N 58°16' E 004°35'713.8
2017-May-23 03:00N 58°11' E 004°45'713.8
2017-May-23 02:30N 58°07' E 004°56'713.8
2017-May-23 02:00N 58°03' E 005°06'713.5
2017-May-23 01:30N 57°59' E 005°16'713.2
2017-May-23 01:00N 57°55' E 005°26'713.5
2017-May-23 00:30N 57°50' E 005°34'713.5
2017-May-23 00:00N 57°46' E 005°44'713.4
2017-May-22 23:30N 57°44' E 005°56'713.3
2017-May-22 23:00N 57°40' E 006°07'612.9
2017-May-22 22:30N 57°37' E 006°16'712.6
2017-May-22 21:59N 57°33' E 006°26'712.7
2017-May-22 21:29N 57°28' E 006°35'612.9
2017-May-22 20:59N 57°24' E 006°44'1012.7
2017-May-22 20:14N 57°19' E 006°59'412.7
2017-May-22 19:55N 57°16' E 007°05'25 6.3
2017-May-22 15:52N 56°51' E 006°59'24312.3
2017-May-21 20:00N 54°39' E 000°55'713.5
2017-May-21 19:30N 54°34' E 000°50'1113.5
2017-May-21 18:42N 54°24' E 000°40'313.5
2017-May-21 18:30N 54°22' E 000°38'713.6
2017-May-21 18:00N 54°16' E 000°32'713.6
2017-May-21 17:30N 54°10' E 000°26'713.5
2017-May-21 17:00N 54°04' E 000°22'713.9
2017-May-21 16:29N 53°57' E 000°22'2511.4
2017-May-21 14:21N 53°33' E 000°13'1012.1
2017-May-21 13:30N 53°36' W 000°03'5 9.8
2017-May-21 13:00N 53°38' W 000°10'1 2.9
2017-May-21 12:30N 53°39' W 000°12'0 0.0
2017-May-21 09:05N 53°39' W 000°13'0 0.0
2017-May-21 08:44N 53°39' W 000°12'0 0.0
2017-May-21 08:20N 53°39' W 000°12'0 0.0
2017-May-21 06:50N 53°39' W 000°12'0 0.0
2017-May-21 06:20N 53°39' W 000°12'0 0.0
2017-May-21 05:59N 53°39' W 000°12'0 0.0
2017-May-21 01:41N 53°39' W 000°12'0 0.0
2017-May-21 00:29N 53°39' W 000°12'0 0.0
2017-May-20 23:23N 53°39' W 000°12'0 0.0
2017-May-20 22:29N 53°39' W 000°12'0 0.0
2017-May-20 21:59N 53°39' W 000°12'0 0.0
2017-May-20 21:29N 53°39' W 000°13'0 0.0
2017-May-20 20:26N 53°39' W 000°12'0 0.0
2017-May-20 19:50N 53°39' W 000°12'0 0.0
2017-May-20 19:26N 53°39' W 000°12'0 0.0
2017-May-20 18:59N 53°39' W 000°12'0 0.0
2017-May-20 18:23N 53°39' W 000°12'0 0.0
2017-May-20 17:53N 53°39' W 000°12'0 0.0
2017-May-19 17:23N 53°39' W 000°13'0 0.0
2017-May-19 16:47N 53°39' W 000°12'0 0.0
2017-May-19 16:17N 53°39' W 000°12'0 0.0
2017-May-19 15:59N 53°39' W 000°13'0 0.0
2017-May-19 08:50N 53°39' W 000°12'0 0.0
2017-May-19 08:29N 53°39' W 000°12'0 0.0
2017-May-19 07:29N 53°39' W 000°12'0 0.0
2017-May-19 06:53N 53°39' W 000°12'0 0.0
2017-May-19 06:29N 53°39' W 000°12'0 0.0
2017-May-19 05:53N 53°39' W 000°12'0 0.0
2017-May-19 05:26N 53°39' W 000°12'0 0.0
2017-May-19 04:50N 53°39' W 000°12'0 0.0
2017-May-19 04:29N 53°39' W 000°12'0 0.0
2017-May-19 03:35N 53°39' W 000°12'0 0.0
2017-May-19 03:29N 53°39' W 000°13'0 0.0
2017-May-19 02:59N 53°39' W 000°12'0 0.0
2017-May-19 02:26N 53°39' W 000°12'0 0.0
2017-May-19 01:59N 53°39' W 000°13'0 0.0
2017-May-19 01:29N 53°39' W 000°12'0 0.0
2017-May-19 00:59N 53°39' W 000°12'0 0.0
2017-May-19 00:29N 53°39' W 000°13'0 0.0
2017-May-18 23:38N 53°39' W 000°12'0 0.0
2017-May-18 23:30N 53°39' W 000°12'0 0.4
2017-May-18 23:00N 53°39' W 000°12'2 3.4
2017-May-18 22:30N 53°38' W 000°10'3 5.8
2017-May-18 22:00N 53°37' W 000°05'4 7.0
2017-May-18 21:30N 53°37' E 000°01'5 9.2
2017-May-18 21:00N 53°34' E 000°07'14 7.2
2017-May-18 19:07N 53°42' E 000°25'  
2017-May-16 01:42N 52°08' E 002°39'412.1
2017-May-16 01:24N 52°04' E 002°38'511.8
2017-May-16 00:57N 51°59' E 002°38'1711.1
2017-May-15 23:27N 51°43' E 002°30'511.3
2017-May-15 23:00N 51°39' E 002°25'611.3
2017-May-15 22:30N 51°35' E 002°19'611.5
2017-May-15 22:00N 51°30' E 002°13'611.7
2017-May-15 21:30N 51°26' E 002°07'611.7
2017-May-15 21:00N 51°22' E 002°01'612.1
2017-May-15 20:30N 51°17' E 001°54'612.2
2017-May-15 20:00N 51°13' E 001°48'612.4
2017-May-15 19:30N 51°08' E 001°42'612.5
2017-May-15 19:00N 51°03' E 001°36'612.4
2017-May-15 18:30N 50°58' E 001°29'612.7
2017-May-15 18:00N 50°52' E 001°25'5011.7
2017-May-15 13:40N 50°25' E 000°18'212.7
2017-May-15 13:30N 50°24' E 000°15'713.1
2017-May-15 13:00N 50°22' E 000°05'713.5
2017-May-15 12:30N 50°21' W 000°05'713.8
2017-May-15 12:00N 50°19' W 000°16'714.4
2017-May-15 11:30N 50°18' W 000°27'714.7
2017-May-15 11:00N 50°15' W 000°37'1715.0
2017-May-15 09:54N 50°10' W 001°02'814.9
2017-May-15 09:22N 50°08' W 001°14'514.6
2017-May-15 09:00N 50°06' W 001°22'1314.1
2017-May-15 08:07N 50°03' W 001°41'4211.6
2017-May-15 04:31N 49°51' W 002°43'010.5
2017-May-15 04:29N 49°51' W 002°43'510.6
2017-May-15 04:00N 49°50' W 002°51'610.8
2017-May-15 03:25N 49°49' W 003°01'511.0
2017-May-15 02:59N 49°48' W 003°08'511.3
2017-May-15 02:30N 49°47' W 003°16'611.4
2017-May-15 02:01N 49°45' W 003°24'611.2
2017-May-15 01:30N 49°45' W 003°33'611.4
2017-May-15 00:57N 49°45' W 003°43'3911.8
2017-May-14 21:37N 49°38' W 004°43'212.5
2017-May-14 21:28N 49°38' W 004°46'  
Track history (hours):
 
Tides and Currents Weather Stations Pressure Air Temp Water Temp Dewpoint Dewpoint Depression Visibility Wind Speed Wind Dir Waves Ship Positions

Overseas Skopelos

Last reported at 2017-May-23 08:15 UTC. Time now 2017-May-25 05:03 UTC.
Position N 58°33' E 003°45'.

Length 183 m; draft 8 m.

Type: Tanker. MMSI: 538003726.

Date/timePositionNaut miles runAvg speedWind from/ knotsBaromVisibWave heightAir tempDewpointWater temp
2017-May-23 08:15N 58°33' E 003°45'3 1.3
2017-May-23 06:21N 58°32' E 003°50'0 1.3
2017-May-23 06:00N 58°32' E 003°50'2 4.2
2017-May-23 05:30N 58°31' E 003°54'612.6
2017-May-23 05:00N 58°28' E 004°04'713.2
2017-May-23 04:30N 58°24' E 004°14'713.2
2017-May-23 04:00N 58°20' E 004°24'713.7
2017-May-23 03:30N 58°16' E 004°35'713.8
2017-May-23 03:00N 58°11' E 004°45'713.8
2017-May-23 02:30N 58°07' E 004°56'713.8
2017-May-23 02:00N 58°03' E 005°06'713.5
2017-May-23 01:30N 57°59' E 005°16'713.2
2017-May-23 01:00N 57°55' E 005°26'713.5
2017-May-23 00:30N 57°50' E 005°34'713.5
2017-May-23 00:00N 57°46' E 005°44'713.4
2017-May-22 23:30N 57°44' E 005°56'713.3
2017-May-22 23:00N 57°40' E 006°07'612.9
2017-May-22 22:30N 57°37' E 006°16'712.6
2017-May-22 21:59N 57°33' E 006°26'712.7
2017-May-22 21:29N 57°28' E 006°35'612.9
2017-May-22 20:59N 57°24' E 006°44'1012.7
2017-May-22 20:14N 57°19' E 006°59'412.7
2017-May-22 19:55N 57°16' E 007°05'25 6.3
2017-May-22 15:52N 56°51' E 006°59'24312.3
2017-May-21 20:00N 54°39' E 000°55'713.5
2017-May-21 19:30N 54°34' E 000°50'1113.5
2017-May-21 18:42N 54°24' E 000°40'313.5
2017-May-21 18:30N 54°22' E 000°38'713.6
2017-May-21 18:00N 54°16' E 000°32'713.6
2017-May-21 17:30N 54°10' E 000°26'713.5
2017-May-21 17:00N 54°04' E 000°22'713.9
2017-May-21 16:29N 53°57' E 000°22'2511.4
2017-May-21 14:21N 53°33' E 000°13'1012.1
2017-May-21 13:30N 53°36' W 000°03'5 9.8
2017-May-21 13:00N 53°38' W 000°10'1 2.9
2017-May-21 12:30N 53°39' W 000°12'0 0.0
2017-May-21 09:05N 53°39' W 000°13'0 0.0
2017-May-21 08:44N 53°39' W 000°12'0 0.0
2017-May-21 08:20N 53°39' W 000°12'0 0.0
2017-May-21 06:50N 53°39' W 000°12'0 0.0
2017-May-21 06:20N 53°39' W 000°12'0 0.0
2017-May-21 05:59N 53°39' W 000°12'0 0.0
2017-May-21 01:41N 53°39' W 000°12'0 0.0
2017-May-21 00:29N 53°39' W 000°12'0 0.0
2017-May-20 23:23N 53°39' W 000°12'0 0.0
2017-May-20 22:29N 53°39' W 000°12'0 0.0
2017-May-20 21:59N 53°39' W 000°12'0 0.0
2017-May-20 21:29N 53°39' W 000°13'0 0.0
2017-May-20 20:26N 53°39' W 000°12'0 0.0
2017-May-20 19:50N 53°39' W 000°12'0 0.0
2017-May-20 19:26N 53°39' W 000°12'0 0.0
2017-May-20 18:59N 53°39' W 000°12'0 0.0
2017-May-20 18:23N 53°39' W 000°12'0 0.0
2017-May-20 17:53N 53°39' W 000°12'0 0.0
2017-May-19 17:23N 53°39' W 000°13'0 0.0
2017-May-19 16:47N 53°39' W 000°12'0 0.0
2017-May-19 16:17N 53°39' W 000°12'0 0.0
2017-May-19 15:59N 53°39' W 000°13'0 0.0
2017-May-19 08:50N 53°39' W 000°12'0 0.0
2017-May-19 08:29N 53°39' W 000°12'0 0.0
2017-May-19 07:29N 53°39' W 000°12'0 0.0
2017-May-19 06:53N 53°39' W 000°12'0 0.0
2017-May-19 06:29N 53°39' W 000°12'0 0.0
2017-May-19 05:53N 53°39' W 000°12'0 0.0
2017-May-19 05:26N 53°39' W 000°12'0 0.0
2017-May-19 04:50N 53°39' W 000°12'0 0.0
2017-May-19 04:29N 53°39' W 000°12'0 0.0
2017-May-19 03:35N 53°39' W 000°12'0 0.0
2017-May-19 03:29N 53°39' W 000°13'0 0.0
2017-May-19 02:59N 53°39' W 000°12'0 0.0
2017-May-19 02:26N 53°39' W 000°12'0 0.0
2017-May-19 01:59N 53°39' W 000°13'0 0.0
2017-May-19 01:29N 53°39' W 000°12'0 0.0
2017-May-19 00:59N 53°39' W 000°12'0 0.0
2017-May-19 00:29N 53°39' W 000°13'0 0.0
2017-May-18 23:38N 53°39' W 000°12'0 0.0
2017-May-18 23:30N 53°39' W 000°12'0 0.4
2017-May-18 23:00N 53°39' W 000°12'2 3.4
2017-May-18 22:30N 53°38' W 000°10'3 5.8
2017-May-18 22:00N 53°37' W 000°05'4 7.0
2017-May-18 21:30N 53°37' E 000°01'5 9.2
2017-May-18 21:00N 53°34' E 000°07'14 7.2
2017-May-18 19:07N 53°42' E 000°25'  
2017-May-16 01:42N 52°08' E 002°39'412.1
2017-May-16 01:24N 52°04' E 002°38'511.8
2017-May-16 00:57N 51°59' E 002°38'1711.1
2017-May-15 23:27N 51°43' E 002°30'511.3
2017-May-15 23:00N 51°39' E 002°25'611.3
2017-May-15 22:30N 51°35' E 002°19'611.5
2017-May-15 22:00N 51°30' E 002°13'611.7
2017-May-15 21:30N 51°26' E 002°07'611.7
2017-May-15 21:00N 51°22' E 002°01'612.1
2017-May-15 20:30N 51°17' E 001°54'612.2
2017-May-15 20:00N 51°13' E 001°48'612.4
2017-May-15 19:30N 51°08' E 001°42'612.5
2017-May-15 19:00N 51°03' E 001°36'612.4
2017-May-15 18:30N 50°58' E 001°29'612.7
2017-May-15 18:00N 50°52' E 001°25'5011.7
2017-May-15 13:40N 50°25' E 000°18'212.7
2017-May-15 13:30N 50°24' E 000°15'713.1
2017-May-15 13:00N 50°22' E 000°05'713.5
2017-May-15 12:30N 50°21' W 000°05'713.8
2017-May-15 12:00N 50°19' W 000°16'714.4
2017-May-15 11:30N 50°18' W 000°27'714.7
2017-May-15 11:00N 50°15' W 000°37'1715.0
2017-May-15 09:54N 50°10' W 001°02'814.9
2017-May-15 09:22N 50°08' W 001°14'514.6
2017-May-15 09:00N 50°06' W 001°22'1314.1
2017-May-15 08:07N 50°03' W 001°41'4211.6
2017-May-15 04:31N 49°51' W 002°43'010.5
2017-May-15 04:29N 49°51' W 002°43'510.6
2017-May-15 04:00N 49°50' W 002°51'610.8
2017-May-15 03:25N 49°49' W 003°01'511.0
2017-May-15 02:59N 49°48' W 003°08'511.3
2017-May-15 02:30N 49°47' W 003°16'611.4
2017-May-15 02:01N 49°45' W 003°24'611.2
2017-May-15 01:30N 49°45' W 003°33'611.4
2017-May-15 00:57N 49°45' W 003°43'3911.8
2017-May-14 21:37N 49°38' W 004°43'212.5
2017-May-14 21:28N 49°38' W 004°46'  

Dump ship's entire track history